sensor_id;sensor_type;location;lat;lon;timestamp;P1;durP1;ratioP1;P2;durP2;ratioP2
9461;SDS011;4769;42.660;23.262;2023-09-08T00:02:00;9.65;;;8.77;;
9461;SDS011;4769;42.660;23.262;2023-09-08T00:04:28;11.70;;;9.48;;
9461;SDS011;4769;42.660;23.262;2023-09-08T00:06:54;13.57;;;9.75;;
9461;SDS011;4769;42.660;23.262;2023-09-08T00:09:20;10.13;;;9.23;;
9461;SDS011;4769;42.660;23.262;2023-09-08T00:11:45;10.68;;;9.45;;
9461;SDS011;4769;42.660;23.262;2023-09-08T00:14:11;9.30;;;8.40;;
9461;SDS011;4769;42.660;23.262;2023-09-08T00:16:37;8.30;;;7.53;;
9461;SDS011;4769;42.660;23.262;2023-09-08T00:19:03;9.25;;;7.57;;
9461;SDS011;4769;42.660;23.262;2023-09-08T00:21:31;10.30;;;8.10;;
9461;SDS011;4769;42.660;23.262;2023-09-08T00:23:57;10.05;;;8.30;;
9461;SDS011;4769;42.660;23.262;2023-09-08T00:26:23;10.02;;;6.80;;
9461;SDS011;4769;42.660;23.262;2023-09-08T00:28:48;7.70;;;6.88;;
9461;SDS011;4769;42.660;23.262;2023-09-08T00:31:14;8.18;;;7.10;;
9461;SDS011;4769;42.660;23.262;2023-09-08T00:33:40;8.57;;;6.50;;
9461;SDS011;4769;42.660;23.262;2023-09-08T00:36:06;8.77;;;6.75;;
9461;SDS011;4769;42.660;23.262;2023-09-08T00:38:34;8.32;;;6.75;;
9461;SDS011;4769;42.660;23.262;2023-09-08T00:41:00;7.50;;;5.97;;
9461;SDS011;4769;42.660;23.262;2023-09-08T00:43:26;10.43;;;6.53;;
9461;SDS011;4769;42.660;23.262;2023-09-08T00:45:52;9.07;;;6.45;;
9461;SDS011;4769;42.660;23.262;2023-09-08T00:48:20;8.98;;;6.18;;
9461;SDS011;4769;42.660;23.262;2023-09-08T00:50:46;8.35;;;6.55;;
9461;SDS011;4769;42.660;23.262;2023-09-08T00:53:12;7.00;;;6.28;;
9461;SDS011;4769;42.660;23.262;2023-09-08T00:55:41;6.53;;;5.30;;
9461;SDS011;4769;42.660;23.262;2023-09-08T00:58:07;7.35;;;4.88;;
9461;SDS011;4769;42.660;23.262;2023-09-08T01:00:33;5.88;;;5.25;;
9461;SDS011;4769;42.660;23.262;2023-09-08T01:02:59;9.68;;;5.30;;
9461;SDS011;4769;42.660;23.262;2023-09-08T01:05:25;6.95;;;4.85;;
9461;SDS011;4769;42.660;23.262;2023-09-08T01:07:51;5.20;;;4.57;;
9461;SDS011;4769;42.660;23.262;2023-09-08T01:10:18;5.85;;;5.25;;
9461;SDS011;4769;42.660;23.262;2023-09-08T01:12:46;5.78;;;5.00;;
9461;SDS011;4769;42.660;23.262;2023-09-08T01:15:12;6.38;;;4.80;;
9461;SDS011;4769;42.660;23.262;2023-09-08T01:17:38;6.75;;;5.07;;
9461;SDS011;4769;42.660;23.262;2023-09-08T01:20:05;5.30;;;4.90;;
9461;SDS011;4769;42.660;23.262;2023-09-08T01:22:43;6.15;;;5.50;;
9461;SDS011;4769;42.660;23.262;2023-09-08T01:25:24;7.13;;;5.00;;
9461;SDS011;4769;42.660;23.262;2023-09-08T01:27:52;6.80;;;5.43;;
9461;SDS011;4769;42.660;23.262;2023-09-08T01:30:19;6.07;;;5.10;;
9461;SDS011;4769;42.660;23.262;2023-09-08T01:32:46;5.68;;;5.18;;
9461;SDS011;4769;42.660;23.262;2023-09-08T01:35:13;9.57;;;5.38;;
9461;SDS011;4769;42.660;23.262;2023-09-08T01:37:39;6.90;;;5.10;;
9461;SDS011;4769;42.660;23.262;2023-09-08T01:40:06;7.75;;;5.68;;
9461;SDS011;4769;42.660;23.262;2023-09-08T01:42:35;6.72;;;5.00;;
9461;SDS011;4769;42.660;23.262;2023-09-08T01:45:01;5.85;;;4.75;;
9461;SDS011;4769;42.660;23.262;2023-09-08T01:47:28;6.35;;;5.20;;
9461;SDS011;4769;42.660;23.262;2023-09-08T01:49:55;7.45;;;5.63;;
9461;SDS011;4769;42.660;23.262;2023-09-08T01:52:20;7.03;;;5.28;;
9461;SDS011;4769;42.660;23.262;2023-09-08T01:54:46;6.75;;;5.32;;
9461;SDS011;4769;42.660;23.262;2023-09-08T01:57:12;8.38;;;5.43;;
9461;SDS011;4769;42.660;23.262;2023-09-08T01:59:40;7.47;;;5.95;;
9461;SDS011;4769;42.660;23.262;2023-09-08T02:02:06;6.55;;;5.55;;
9461;SDS011;4769;42.660;23.262;2023-09-08T02:04:32;8.85;;;5.57;;
9461;SDS011;4769;42.660;23.262;2023-09-08T02:06:57;7.38;;;5.63;;
9461;SDS011;4769;42.660;23.262;2023-09-08T02:09:29;7.22;;;5.53;;
9461;SDS011;4769;42.660;23.262;2023-09-08T02:11:56;6.88;;;5.25;;
9461;SDS011;4769;42.660;23.262;2023-09-08T02:14:22;7.50;;;5.10;;
9461;SDS011;4769;42.660;23.262;2023-09-08T02:16:50;7.32;;;5.63;;
9461;SDS011;4769;42.660;23.262;2023-09-08T02:19:16;6.43;;;5.82;;
9461;SDS011;4769;42.660;23.262;2023-09-08T02:21:41;6.63;;;5.88;;
9461;SDS011;4769;42.660;23.262;2023-09-08T02:24:07;10.00;;;6.22;;
9461;SDS011;4769;42.660;23.262;2023-09-08T02:26:33;6.72;;;6.13;;
9461;SDS011;4769;42.660;23.262;2023-09-08T02:28:59;9.93;;;6.43;;
9461;SDS011;4769;42.660;23.262;2023-09-08T02:31:25;9.25;;;6.53;;
9461;SDS011;4769;42.660;23.262;2023-09-08T02:33:54;6.70;;;5.97;;
9461;SDS011;4769;42.660;23.262;2023-09-08T02:36:19;9.27;;;5.95;;
9461;SDS011;4769;42.660;23.262;2023-09-08T02:38:45;8.45;;;5.82;;
9461;SDS011;4769;42.660;23.262;2023-09-08T02:41:11;8.27;;;7.00;;
9461;SDS011;4769;42.660;23.262;2023-09-08T02:43:36;7.65;;;6.20;;
9461;SDS011;4769;42.660;23.262;2023-09-08T02:46:02;7.07;;;6.35;;
9461;SDS011;4769;42.660;23.262;2023-09-08T02:48:28;8.43;;;6.30;;
9461;SDS011;4769;42.660;23.262;2023-09-08T02:50:56;10.07;;;6.55;;
9461;SDS011;4769;42.660;23.262;2023-09-08T02:53:22;7.50;;;6.50;;
9461;SDS011;4769;42.660;23.262;2023-09-08T02:55:48;10.05;;;7.00;;
9461;SDS011;4769;42.660;23.262;2023-09-08T02:58:14;7.43;;;6.72;;
9461;SDS011;4769;42.660;23.262;2023-09-08T03:00:39;9.82;;;7.18;;
9461;SDS011;4769;42.660;23.262;2023-09-08T03:03:05;8.32;;;7.20;;
9461;SDS011;4769;42.660;23.262;2023-09-08T03:05:31;7.95;;;7.18;;
9461;SDS011;4769;42.660;23.262;2023-09-08T03:08:00;8.45;;;7.65;;
9461;SDS011;4769;42.660;23.262;2023-09-08T03:10:25;9.43;;;8.00;;
9461;SDS011;4769;42.660;23.262;2023-09-08T03:12:51;9.73;;;7.45;;
9461;SDS011;4769;42.660;23.262;2023-09-08T03:15:17;9.13;;;8.15;;
9461;SDS011;4769;42.660;23.262;2023-09-08T03:17:42;9.40;;;7.97;;
9461;SDS011;4769;42.660;23.262;2023-09-08T03:20:09;9.43;;;8.50;;
9461;SDS011;4769;42.660;23.262;2023-09-08T03:22:35;9.07;;;8.18;;
9461;SDS011;4769;42.660;23.262;2023-09-08T03:25:04;12.20;;;8.20;;
9461;SDS011;4769;42.660;23.262;2023-09-08T03:27:30;10.18;;;8.02;;
9461;SDS011;4769;42.660;23.262;2023-09-08T03:29:56;9.80;;;8.60;;
9461;SDS011;4769;42.660;23.262;2023-09-08T03:32:22;9.27;;;8.10;;
9461;SDS011;4769;42.660;23.262;2023-09-08T03:34:47;9.93;;;8.38;;
9461;SDS011;4769;42.660;23.262;2023-09-08T03:37:13;9.52;;;8.52;;
9461;SDS011;4769;42.660;23.262;2023-09-08T03:39:39;9.45;;;8.43;;
9461;SDS011;4769;42.660;23.262;2023-09-08T03:42:07;11.52;;;8.32;;
9461;SDS011;4769;42.660;23.262;2023-09-08T03:44:33;9.27;;;7.90;;
9461;SDS011;4769;42.660;23.262;2023-09-08T03:46:59;9.65;;;7.75;;
9461;SDS011;4769;42.660;23.262;2023-09-08T03:49:24;9.93;;;8.00;;
9461;SDS011;4769;42.660;23.262;2023-09-08T03:51:50;11.05;;;7.78;;
9461;SDS011;4769;42.660;23.262;2023-09-08T03:54:16;9.25;;;7.55;;
9461;SDS011;4769;42.660;23.262;2023-09-08T03:56:41;10.32;;;7.80;;
9461;SDS011;4769;42.660;23.262;2023-09-08T03:59:10;9.82;;;8.05;;
9461;SDS011;4769;42.660;23.262;2023-09-08T04:01:35;8.50;;;7.70;;
9461;SDS011;4769;42.660;23.262;2023-09-08T04:04:01;9.57;;;7.47;;
9461;SDS011;4769;42.660;23.262;2023-09-08T04:06:27;10.95;;;7.93;;
9461;SDS011;4769;42.660;23.262;2023-09-08T04:08:53;11.68;;;7.65;;
9461;SDS011;4769;42.660;23.262;2023-09-08T04:11:19;13.75;;;8.30;;
9461;SDS011;4769;42.660;23.262;2023-09-08T04:13:44;13.82;;;8.85;;
9461;SDS011;4769;42.660;23.262;2023-09-08T04:16:13;12.63;;;8.48;;
9461;SDS011;4769;42.660;23.262;2023-09-08T04:18:38;11.80;;;8.85;;
9461;SDS011;4769;42.660;23.262;2023-09-08T04:21:05;9.82;;;8.77;;
9461;SDS011;4769;42.660;23.262;2023-09-08T04:23:31;10.13;;;9.07;;
9461;SDS011;4769;42.660;23.262;2023-09-08T04:25:57;9.38;;;8.40;;
9461;SDS011;4769;42.660;23.262;2023-09-08T04:28:23;11.02;;;9.20;;
9461;SDS011;4769;42.660;23.262;2023-09-08T04:30:48;10.95;;;9.38;;
9461;SDS011;4769;42.660;23.262;2023-09-08T04:33:17;17.52;;;9.38;;
9461;SDS011;4769;42.660;23.262;2023-09-08T04:35:43;10.23;;;8.73;;
9461;SDS011;4769;42.660;23.262;2023-09-08T04:38:08;12.63;;;11.05;;
9461;SDS011;4769;42.660;23.262;2023-09-08T04:40:34;15.23;;;10.88;;
9461;SDS011;4769;42.660;23.262;2023-09-08T04:43:00;14.18;;;10.70;;
9461;SDS011;4769;42.660;23.262;2023-09-08T04:45:25;17.13;;;10.25;;
9461;SDS011;4769;42.660;23.262;2023-09-08T04:47:51;11.85;;;9.50;;
9461;SDS011;4769;42.660;23.262;2023-09-08T04:50:19;17.42;;;9.95;;
9461;SDS011;4769;42.660;23.262;2023-09-08T04:52:45;12.45;;;9.88;;
9461;SDS011;4769;42.660;23.262;2023-09-08T04:55:11;13.27;;;9.77;;
9461;SDS011;4769;42.660;23.262;2023-09-08T04:57:37;15.00;;;9.82;;
9461;SDS011;4769;42.660;23.262;2023-09-08T05:00:03;12.35;;;9.32;;
9461;SDS011;4769;42.660;23.262;2023-09-08T05:02:29;14.65;;;9.77;;
9461;SDS011;4769;42.660;23.262;2023-09-08T05:04:55;13.25;;;9.30;;
9461;SDS011;4769;42.660;23.262;2023-09-08T05:07:23;12.30;;;9.70;;
9461;SDS011;4769;42.660;23.262;2023-09-08T05:09:49;13.30;;;9.32;;
9461;SDS011;4769;42.660;23.262;2023-09-08T05:12:14;11.63;;;9.38;;
9461;SDS011;4769;42.660;23.262;2023-09-08T05:14:40;15.73;;;9.20;;
9461;SDS011;4769;42.660;23.262;2023-09-08T05:17:06;15.45;;;8.77;;
9461;SDS011;4769;42.660;23.262;2023-09-08T05:19:32;12.32;;;8.75;;
9461;SDS011;4769;42.660;23.262;2023-09-08T05:21:57;17.52;;;8.63;;
9461;SDS011;4769;42.660;23.262;2023-09-08T05:24:26;8.73;;;7.65;;
9461;SDS011;4769;42.660;23.262;2023-09-08T05:26:51;10.77;;;7.68;;
9461;SDS011;4769;42.660;23.262;2023-09-08T05:29:17;14.52;;;7.28;;
9461;SDS011;4769;42.660;23.262;2023-09-08T05:31:43;11.45;;;6.93;;
9461;SDS011;4769;42.660;23.262;2023-09-08T05:34:09;9.60;;;7.43;;
9461;SDS011;4769;42.660;23.262;2023-09-08T05:36:34;8.35;;;6.75;;
9461;SDS011;4769;42.660;23.262;2023-09-08T05:39:00;7.30;;;6.53;;
9461;SDS011;4769;42.660;23.262;2023-09-08T05:41:29;9.70;;;7.10;;
9461;SDS011;4769;42.660;23.262;2023-09-08T05:43:54;10.82;;;6.97;;
9461;SDS011;4769;42.660;23.262;2023-09-08T05:46:20;9.02;;;6.72;;
9461;SDS011;4769;42.660;23.262;2023-09-08T05:48:46;8.52;;;7.28;;
9461;SDS011;4769;42.660;23.262;2023-09-08T05:51:11;10.65;;;7.22;;
9461;SDS011;4769;42.660;23.262;2023-09-08T05:53:37;11.88;;;6.80;;
9461;SDS011;4769;42.660;23.262;2023-09-08T05:56:03;5.88;;;5.20;;
9461;SDS011;4769;42.660;23.262;2023-09-08T05:58:31;11.52;;;6.40;;
9461;SDS011;4769;42.660;23.262;2023-09-08T06:00:57;9.65;;;7.35;;
9461;SDS011;4769;42.660;23.262;2023-09-08T06:03:23;6.47;;;5.38;;
9461;SDS011;4769;42.660;23.262;2023-09-08T06:05:49;11.75;;;5.93;;
9461;SDS011;4769;42.660;23.262;2023-09-08T06:08:14;6.85;;;5.38;;
9461;SDS011;4769;42.660;23.262;2023-09-08T06:10:40;6.97;;;5.53;;
9461;SDS011;4769;42.660;23.262;2023-09-08T06:13:06;10.40;;;5.20;;
9461;SDS011;4769;42.660;23.262;2023-09-08T06:15:34;6.60;;;5.43;;
9461;SDS011;4769;42.660;23.262;2023-09-08T06:18:00;6.93;;;5.43;;
9461;SDS011;4769;42.660;23.262;2023-09-08T06:20:26;13.40;;;5.00;;
9461;SDS011;4769;42.660;23.262;2023-09-08T06:22:51;9.25;;;5.55;;
9461;SDS011;4769;42.660;23.262;2023-09-08T06:25:17;9.25;;;5.47;;
9461;SDS011;4769;42.660;23.262;2023-09-08T06:27:43;7.68;;;5.00;;
9461;SDS011;4769;42.660;23.262;2023-09-08T06:30:09;6.25;;;5.47;;
9461;SDS011;4769;42.660;23.262;2023-09-08T06:32:39;12.05;;;6.05;;
9461;SDS011;4769;42.660;23.262;2023-09-08T06:35:04;7.78;;;5.55;;
9461;SDS011;4769;42.660;23.262;2023-09-08T06:37:34;9.48;;;5.25;;
9461;SDS011;4769;42.660;23.262;2023-09-08T06:40:00;7.50;;;4.85;;
9461;SDS011;4769;42.660;23.262;2023-09-08T06:42:26;8.57;;;5.20;;
9461;SDS011;4769;42.660;23.262;2023-09-08T06:44:52;11.35;;;4.95;;
9461;SDS011;4769;42.660;23.262;2023-09-08T06:47:18;5.97;;;4.72;;
9461;SDS011;4769;42.660;23.262;2023-09-08T06:49:46;14.75;;;4.63;;
9461;SDS011;4769;42.660;23.262;2023-09-08T06:52:12;6.28;;;4.22;;
9461;SDS011;4769;42.660;23.262;2023-09-08T06:54:38;7.88;;;4.55;;
9461;SDS011;4769;42.660;23.262;2023-09-08T06:57:04;5.07;;;4.60;;
9461;SDS011;4769;42.660;23.262;2023-09-08T06:59:30;5.97;;;5.18;;
9461;SDS011;4769;42.660;23.262;2023-09-08T07:01:55;8.20;;;4.78;;
9461;SDS011;4769;42.660;23.262;2023-09-08T07:04:21;6.82;;;4.70;;
9461;SDS011;4769;42.660;23.262;2023-09-08T07:06:49;6.60;;;4.88;;
9461;SDS011;4769;42.660;23.262;2023-09-08T07:09:15;6.63;;;5.38;;
9461;SDS011;4769;42.660;23.262;2023-09-08T07:11:41;10.57;;;6.75;;
9461;SDS011;4769;42.660;23.262;2023-09-08T07:14:07;9.70;;;6.30;;
9461;SDS011;4769;42.660;23.262;2023-09-08T07:16:32;6.30;;;5.80;;
9461;SDS011;4769;42.660;23.262;2023-09-08T07:18:58;10.18;;;6.82;;
9461;SDS011;4769;42.660;23.262;2023-09-08T07:21:24;7.20;;;4.72;;
9461;SDS011;4769;42.660;23.262;2023-09-08T07:23:52;5.97;;;4.55;;
9461;SDS011;4769;42.660;23.262;2023-09-08T07:26:18;5.38;;;4.35;;
9461;SDS011;4769;42.660;23.262;2023-09-08T07:28:44;4.85;;;4.07;;
9461;SDS011;4769;42.660;23.262;2023-09-08T07:31:10;6.68;;;4.55;;
9461;SDS011;4769;42.660;23.262;2023-09-08T07:33:36;6.43;;;4.53;;
9461;SDS011;4769;42.660;23.262;2023-09-08T07:36:05;7.57;;;4.40;;
9461;SDS011;4769;42.660;23.262;2023-09-08T07:38:31;6.85;;;4.63;;
9461;SDS011;4769;42.660;23.262;2023-09-08T07:41:00;7.50;;;4.40;;
9461;SDS011;4769;42.660;23.262;2023-09-08T07:43:26;11.77;;;4.90;;
9461;SDS011;4769;42.660;23.262;2023-09-08T07:45:52;6.80;;;4.25;;
9461;SDS011;4769;42.660;23.262;2023-09-08T07:48:18;7.50;;;4.35;;
9461;SDS011;4769;42.660;23.262;2023-09-08T07:50:44;8.32;;;4.38;;
9461;SDS011;4769;42.660;23.262;2023-09-08T07:53:09;6.57;;;5.18;;
9461;SDS011;4769;42.660;23.262;2023-09-08T07:55:35;8.80;;;5.00;;
9461;SDS011;4769;42.660;23.262;2023-09-08T07:58:03;4.80;;;4.40;;
9461;SDS011;4769;42.660;23.262;2023-09-08T08:00:29;6.22;;;4.55;;
9461;SDS011;4769;42.660;23.262;2023-09-08T08:02:55;7.40;;;4.82;;
9461;SDS011;4769;42.660;23.262;2023-09-08T08:05:22;9.75;;;4.90;;
9461;SDS011;4769;42.660;23.262;2023-09-08T08:07:48;4.80;;;4.30;;
9461;SDS011;4769;42.660;23.262;2023-09-08T08:10:14;8.15;;;4.20;;
9461;SDS011;4769;42.660;23.262;2023-09-08T08:12:40;6.03;;;4.30;;
9461;SDS011;4769;42.660;23.262;2023-09-08T08:15:10;7.32;;;4.55;;
9461;SDS011;4769;42.660;23.262;2023-09-08T08:17:36;6.35;;;4.60;;
9461;SDS011;4769;42.660;23.262;2023-09-08T08:20:02;10.82;;;8.13;;
9461;SDS011;4769;42.660;23.262;2023-09-08T08:22:28;18.80;;;15.15;;
9461;SDS011;4769;42.660;23.262;2023-09-08T08:24:54;13.20;;;7.93;;
9461;SDS011;4769;42.660;23.262;2023-09-08T08:27:20;5.57;;;5.00;;
9461;SDS011;4769;42.660;23.262;2023-09-08T08:29:45;11.43;;;6.18;;
9461;SDS011;4769;42.660;23.262;2023-09-08T08:32:14;7.50;;;6.35;;
9461;SDS011;4769;42.660;23.262;2023-09-08T08:34:40;7.90;;;5.13;;
9461;SDS011;4769;42.660;23.262;2023-09-08T08:37:05;8.23;;;5.18;;
9461;SDS011;4769;42.660;23.262;2023-09-08T08:39:31;6.95;;;4.30;;
9461;SDS011;4769;42.660;23.262;2023-09-08T08:41:57;7.05;;;5.22;;
9461;SDS011;4769;42.660;23.262;2023-09-08T08:44:22;9.30;;;5.78;;
9461;SDS011;4769;42.660;23.262;2023-09-08T08:46:49;15.77;;;5.25;;
9461;SDS011;4769;42.660;23.262;2023-09-08T08:49:18;4.30;;;3.90;;
9461;SDS011;4769;42.660;23.262;2023-09-08T08:51:46;5.57;;;3.90;;
9461;SDS011;4769;42.660;23.262;2023-09-08T08:54:13;4.63;;;4.22;;
9461;SDS011;4769;42.660;23.262;2023-09-08T08:56:40;7.55;;;5.03;;
9461;SDS011;4769;42.660;23.262;2023-09-08T08:59:07;10.65;;;6.78;;
9461;SDS011;4769;42.660;23.262;2023-09-08T09:01:34;16.80;;;8.02;;
9461;SDS011;4769;42.660;23.262;2023-09-08T09:04:01;5.72;;;4.45;;
9461;SDS011;4769;42.660;23.262;2023-09-08T09:06:33;4.47;;;4.07;;
9461;SDS011;4769;42.660;23.262;2023-09-08T09:08:59;4.35;;;3.88;;
9461;SDS011;4769;42.660;23.262;2023-09-08T09:11:25;6.00;;;3.67;;
9461;SDS011;4769;42.660;23.262;2023-09-08T09:13:51;5.88;;;4.05;;
9461;SDS011;4769;42.660;23.262;2023-09-08T09:16:16;5.45;;;3.72;;
9461;SDS011;4769;42.660;23.262;2023-09-08T09:18:53;9.30;;;4.28;;
9461;SDS011;4769;42.660;23.262;2023-09-08T09:21:19;6.93;;;4.13;;
9461;SDS011;4769;42.660;23.262;2023-09-08T09:23:48;4.40;;;4.00;;
9461;SDS011;4769;42.660;23.262;2023-09-08T09:26:23;9.20;;;4.35;;
9461;SDS011;4769;42.660;23.262;2023-09-08T09:28:49;6.47;;;3.88;;
9461;SDS011;4769;42.660;23.262;2023-09-08T09:31:15;11.43;;;4.80;;
9461;SDS011;4769;42.660;23.262;2023-09-08T09:33:41;10.75;;;4.30;;
9461;SDS011;4769;42.660;23.262;2023-09-08T09:36:06;7.03;;;4.40;;
9461;SDS011;4769;42.660;23.262;2023-09-08T09:38:32;6.85;;;4.20;;
9461;SDS011;4769;42.660;23.262;2023-09-08T09:41:02;4.60;;;4.20;;
9461;SDS011;4769;42.660;23.262;2023-09-08T09:43:28;9.43;;;4.90;;
9461;SDS011;4769;42.660;23.262;2023-09-08T09:45:55;9.02;;;4.30;;
9461;SDS011;4769;42.660;23.262;2023-09-08T09:48:21;7.95;;;4.68;;
9461;SDS011;4769;42.660;23.262;2023-09-08T09:50:47;8.88;;;6.53;;
9461;SDS011;4769;42.660;23.262;2023-09-08T09:53:13;9.18;;;4.35;;
9461;SDS011;4769;42.660;23.262;2023-09-08T09:55:41;5.97;;;4.70;;
9461;SDS011;4769;42.660;23.262;2023-09-08T09:58:10;6.47;;;4.07;;
9461;SDS011;4769;42.660;23.262;2023-09-08T10:00:37;4.97;;;4.13;;
9461;SDS011;4769;42.660;23.262;2023-09-08T10:03:04;5.18;;;4.43;;
9461;SDS011;4769;42.660;23.262;2023-09-08T10:05:30;5.22;;;4.72;;
9461;SDS011;4769;42.660;23.262;2023-09-08T10:07:56;5.97;;;4.30;;
9461;SDS011;4769;42.660;23.262;2023-09-08T10:10:23;6.07;;;4.10;;
9461;SDS011;4769;42.660;23.262;2023-09-08T10:12:53;5.53;;;3.95;;
9461;SDS011;4769;42.660;23.262;2023-09-08T10:15:23;5.03;;;4.63;;
9461;SDS011;4769;42.660;23.262;2023-09-08T10:17:52;5.75;;;4.10;;
9461;SDS011;4769;42.660;23.262;2023-09-08T10:20:19;5.50;;;4.45;;
9461;SDS011;4769;42.660;23.262;2023-09-08T10:22:47;5.53;;;4.07;;
9461;SDS011;4769;42.660;23.262;2023-09-08T10:25:18;6.38;;;4.25;;
9461;SDS011;4769;42.660;23.262;2023-09-08T10:27:46;8.88;;;5.72;;
9461;SDS011;4769;42.660;23.262;2023-09-08T10:30:12;6.05;;;4.72;;
9461;SDS011;4769;42.660;23.262;2023-09-08T10:32:41;8.82;;;5.30;;
9461;SDS011;4769;42.660;23.262;2023-09-08T10:35:08;7.85;;;4.60;;
9461;SDS011;4769;42.660;23.262;2023-09-08T10:37:34;4.50;;;3.97;;
9461;SDS011;4769;42.660;23.262;2023-09-08T10:42:45;6.03;;;3.95;;
9461;SDS011;4769;42.660;23.262;2023-09-08T10:45:15;5.18;;;4.00;;
9461;SDS011;4769;42.660;23.262;2023-09-08T10:47:55;5.30;;;3.80;;
9461;SDS011;4769;42.660;23.262;2023-09-08T10:50:26;10.15;;;4.50;;
9461;SDS011;4769;42.660;23.262;2023-09-08T10:53:03;7.38;;;4.57;;
9461;SDS011;4769;42.660;23.262;2023-09-08T10:55:34;4.82;;;4.32;;
9461;SDS011;4769;42.660;23.262;2023-09-08T10:58:01;5.03;;;3.70;;
9461;SDS011;4769;42.660;23.262;2023-09-08T11:00:28;7.65;;;4.53;;
9461;SDS011;4769;42.660;23.262;2023-09-08T11:03:11;8.13;;;4.10;;
9461;SDS011;4769;42.660;23.262;2023-09-08T11:05:37;6.78;;;3.72;;
9461;SDS011;4769;42.660;23.262;2023-09-08T11:08:03;4.38;;;3.97;;
9461;SDS011;4769;42.660;23.262;2023-09-08T11:10:29;5.45;;;4.47;;
9461;SDS011;4769;42.660;23.262;2023-09-08T11:12:55;6.10;;;4.00;;
9461;SDS011;4769;42.660;23.262;2023-09-08T11:15:21;6.68;;;3.90;;
9461;SDS011;4769;42.660;23.262;2023-09-08T11:17:46;6.88;;;4.13;;
9461;SDS011;4769;42.660;23.262;2023-09-08T11:20:15;4.43;;;3.60;;
9461;SDS011;4769;42.660;23.262;2023-09-08T11:22:40;5.30;;;4.13;;
9461;SDS011;4769;42.660;23.262;2023-09-08T11:25:14;8.00;;;4.70;;
9461;SDS011;4769;42.660;23.262;2023-09-08T11:27:40;4.53;;;4.05;;
9461;SDS011;4769;42.660;23.262;2023-09-08T11:30:06;9.35;;;4.57;;
9461;SDS011;4769;42.660;23.262;2023-09-08T11:32:33;5.20;;;4.18;;
9461;SDS011;4769;42.660;23.262;2023-09-08T11:35:01;5.90;;;4.45;;
9461;SDS011;4769;42.660;23.262;2023-09-08T11:37:28;4.28;;;3.80;;
9461;SDS011;4769;42.660;23.262;2023-09-08T11:39:54;5.68;;;4.30;;
9461;SDS011;4769;42.660;23.262;2023-09-08T11:42:23;5.50;;;4.55;;
9461;SDS011;4769;42.660;23.262;2023-09-08T11:44:49;6.32;;;4.20;;
9461;SDS011;4769;42.660;23.262;2023-09-08T11:47:15;6.00;;;4.07;;
9461;SDS011;4769;42.660;23.262;2023-09-08T11:49:40;6.95;;;3.80;;
9461;SDS011;4769;42.660;23.262;2023-09-08T11:52:06;5.47;;;4.22;;
9461;SDS011;4769;42.660;23.262;2023-09-08T11:54:33;6.85;;;4.07;;
9461;SDS011;4769;42.660;23.262;2023-09-08T11:57:00;4.93;;;3.78;;
9461;SDS011;4769;42.660;23.262;2023-09-08T11:59:30;5.82;;;3.80;;
9461;SDS011;4769;42.660;23.262;2023-09-08T12:01:58;5.35;;;4.47;;
9461;SDS011;4769;42.660;23.262;2023-09-08T12:04:24;4.65;;;4.15;;
9461;SDS011;4769;42.660;23.262;2023-09-08T12:06:51;6.10;;;3.75;;
9461;SDS011;4769;42.660;23.262;2023-09-08T12:09:18;4.88;;;4.00;;
9461;SDS011;4769;42.660;23.262;2023-09-08T12:11:45;5.38;;;3.92;;
9461;SDS011;4769;42.660;23.262;2023-09-08T12:14:12;4.80;;;4.32;;
9461;SDS011;4769;42.660;23.262;2023-09-08T12:16:43;5.80;;;3.80;;
9461;SDS011;4769;42.660;23.262;2023-09-08T12:21:54;5.95;;;4.20;;
9461;SDS011;4769;42.660;23.262;2023-09-08T12:27:16;4.88;;;4.28;;
9461;SDS011;4769;42.660;23.262;2023-09-08T12:29:51;8.40;;;4.18;;
9461;SDS011;4769;42.660;23.262;2023-09-08T12:32:20;7.82;;;3.83;;
9461;SDS011;4769;42.660;23.262;2023-09-08T12:34:46;6.50;;;4.43;;
9461;SDS011;4769;42.660;23.262;2023-09-08T12:37:12;4.63;;;4.18;;
9461;SDS011;4769;42.660;23.262;2023-09-08T12:39:39;5.47;;;5.03;;
9461;SDS011;4769;42.660;23.262;2023-09-08T12:42:05;7.15;;;4.38;;
9461;SDS011;4769;42.660;23.262;2023-09-08T12:44:31;7.18;;;4.05;;
9461;SDS011;4769;42.660;23.262;2023-09-08T12:46:57;5.40;;;4.25;;
9461;SDS011;4769;42.660;23.262;2023-09-08T12:49:25;5.60;;;4.03;;
9461;SDS011;4769;42.660;23.262;2023-09-08T12:51:52;4.55;;;4.13;;
9461;SDS011;4769;42.660;23.262;2023-09-08T12:54:17;4.93;;;3.83;;
9461;SDS011;4769;42.660;23.262;2023-09-08T12:56:43;5.68;;;4.00;;
9461;SDS011;4769;42.660;23.262;2023-09-08T12:59:15;6.90;;;3.85;;
9461;SDS011;4769;42.660;23.262;2023-09-08T13:01:41;5.20;;;3.70;;
9461;SDS011;4769;42.660;23.262;2023-09-08T13:04:07;5.07;;;4.18;;
9461;SDS011;4769;42.660;23.262;2023-09-08T13:06:35;5.22;;;3.88;;
9461;SDS011;4769;42.660;23.262;2023-09-08T13:09:01;4.72;;;4.22;;
9461;SDS011;4769;42.660;23.262;2023-09-08T13:11:26;9.63;;;4.03;;
9461;SDS011;4769;42.660;23.262;2023-09-08T13:13:52;7.70;;;4.40;;
9461;SDS011;4769;42.660;23.262;2023-09-08T13:16:18;5.85;;;4.07;;
9461;SDS011;4769;42.660;23.262;2023-09-08T13:18:43;5.38;;;4.43;;
9461;SDS011;4769;42.660;23.262;2023-09-08T13:21:09;9.18;;;4.38;;
9461;SDS011;4769;42.660;23.262;2023-09-08T13:23:38;6.85;;;4.28;;
9461;SDS011;4769;42.660;23.262;2023-09-08T13:26:03;8.57;;;4.28;;
9461;SDS011;4769;42.660;23.262;2023-09-08T13:28:29;7.18;;;4.50;;
9461;SDS011;4769;42.660;23.262;2023-09-08T13:30:55;9.55;;;3.92;;
9461;SDS011;4769;42.660;23.262;2023-09-08T13:33:20;6.03;;;4.05;;
9461;SDS011;4769;42.660;23.262;2023-09-08T13:35:46;5.32;;;4.43;;
9461;SDS011;4769;42.660;23.262;2023-09-08T13:38:12;6.72;;;4.13;;
9461;SDS011;4769;42.660;23.262;2023-09-08T13:40:40;6.35;;;4.93;;
9461;SDS011;4769;42.660;23.262;2023-09-08T13:43:06;4.03;;;3.63;;
9461;SDS011;4769;42.660;23.262;2023-09-08T13:45:31;5.20;;;4.10;;
9461;SDS011;4769;42.660;23.262;2023-09-08T13:47:57;7.25;;;5.00;;
9461;SDS011;4769;42.660;23.262;2023-09-08T13:50:23;6.30;;;4.90;;
9461;SDS011;4769;42.660;23.262;2023-09-08T13:52:49;5.38;;;4.32;;
9461;SDS011;4769;42.660;23.262;2023-09-08T13:55:15;5.10;;;4.60;;
9461;SDS011;4769;42.660;23.262;2023-09-08T13:57:43;8.20;;;4.78;;
9461;SDS011;4769;42.660;23.262;2023-09-08T14:00:09;7.00;;;4.10;;
9461;SDS011;4769;42.660;23.262;2023-09-08T14:02:36;8.45;;;4.85;;
9461;SDS011;4769;42.660;23.262;2023-09-08T14:05:02;11.25;;;4.78;;
9461;SDS011;4769;42.660;23.262;2023-09-08T14:07:28;4.95;;;4.45;;
9461;SDS011;4769;42.660;23.262;2023-09-08T14:09:54;10.40;;;4.30;;
9461;SDS011;4769;42.660;23.262;2023-09-08T14:12:19;5.35;;;4.30;;
9461;SDS011;4769;42.660;23.262;2023-09-08T14:14:48;6.38;;;4.60;;
9461;SDS011;4769;42.660;23.262;2023-09-08T14:17:13;5.38;;;4.05;;
9461;SDS011;4769;42.660;23.262;2023-09-08T14:19:39;6.63;;;4.30;;
9461;SDS011;4769;42.660;23.262;2023-09-08T14:22:05;6.43;;;4.60;;
9461;SDS011;4769;42.660;23.262;2023-09-08T14:24:30;7.70;;;4.43;;
9461;SDS011;4769;42.660;23.262;2023-09-08T14:26:56;5.25;;;4.10;;
9461;SDS011;4769;42.660;23.262;2023-09-08T14:29:22;5.22;;;4.57;;
9461;SDS011;4769;42.660;23.262;2023-09-08T14:31:50;4.85;;;4.35;;
9461;SDS011;4769;42.660;23.262;2023-09-08T14:34:16;8.77;;;4.40;;
9461;SDS011;4769;42.660;23.262;2023-09-08T14:36:41;6.32;;;4.78;;
9461;SDS011;4769;42.660;23.262;2023-09-08T14:39:09;5.03;;;3.90;;
9461;SDS011;4769;42.660;23.262;2023-09-08T14:41:34;6.22;;;4.28;;
9461;SDS011;4769;42.660;23.262;2023-09-08T14:44:00;8.35;;;4.63;;
9461;SDS011;4769;42.660;23.262;2023-09-08T14:46:36;8.40;;;4.97;;
9461;SDS011;4769;42.660;23.262;2023-09-08T14:49:04;5.93;;;4.47;;
9461;SDS011;4769;42.660;23.262;2023-09-08T14:51:30;5.97;;;4.57;;
9461;SDS011;4769;42.660;23.262;2023-09-08T14:53:55;5.78;;;4.40;;
9461;SDS011;4769;42.660;23.262;2023-09-08T14:56:21;8.15;;;4.28;;
9461;SDS011;4769;42.660;23.262;2023-09-08T14:58:47;6.90;;;4.57;;
9461;SDS011;4769;42.660;23.262;2023-09-08T15:01:13;5.47;;;3.92;;
9461;SDS011;4769;42.660;23.262;2023-09-08T15:03:39;4.50;;;4.10;;